Time;durP1;ratioP1;P1;durP2;ratioP2;P2;SDS_P1;SDS_P2;PMS_P1;PMS_P2;Temp;Humidity;BMP_temperature;BMP_pressure;BME280_temperature;BME280_humidity;BME280_pressure;Samples;Min_cycle;Max_cycle;Signal;HPM_P1;HPM_P2
2023/06/30 00:00:34;;;;;;;;;;;;;;;;;;5090564;28;19928;-65
2023/06/30 00:03:00;;;;;;;;;;;;;;;;;;5072039;28;19924;-65
2023/06/30 00:05:27;;;;;;;;;;;;;;;;;;5090675;28;19924;-65
2023/06/30 00:07:54;;;;;;;;;;;;;;;;;;5090728;28;19925;-65
2023/06/30 00:10:21;;;;;;;;;;;;;;;;;;5090212;28;19924;-65
2023/06/30 00:12:47;;;;;;;;;;;;;;;;;;5090880;28;20032;-65
2023/06/30 00:15:13;;;;;;;;;;;;;;;;;;5090585;28;19981;-65
2023/06/30 00:17:39;;;;;;;;;;;;;;;;;;5090141;28;19924;-65
2023/06/30 00:20:05;;;;;;;;;;;;;;;;;;5090689;28;19920;-65
2023/06/30 00:22:31;;;;;;;;;;;;;;;;;;5090785;28;19924;-65
2023/06/30 00:24:58;;;;;;;;;;;;;;;;;;5072150;28;20381;-65
2023/06/30 00:27:24;;;;;;;;;;;;;;;;;;5070116;28;20007;-65
2023/06/30 00:29:50;;;;;;;;;;;;;;;;;;5070534;28;20113;-65
2023/06/30 00:32:16;;;;;;;;;;;;;;;;;;5088579;28;19924;-65
2023/06/30 00:34:42;;;;;;;;;;;;;;;;;;5090362;28;19924;-65
2023/06/30 00:37:08;;;;;;;;;;;;;;;;;;5090376;28;19920;-65
2023/06/30 00:39:34;;;;;;;;;;;;;;;;;;5090139;28;19920;-65
2023/06/30 00:42:00;;;;;;;;;;;;;;;;;;5090546;28;19935;-65
2023/06/30 00:44:26;;;;;;;;;;;;;;;;;;5072090;28;19924;-65
2023/06/30 00:46:52;;;;;;;;;;;;;;;;;;5089897;28;20013;-65
2023/06/30 00:49:18;;;;;;;;;;;;;;;;;;5090451;28;19973;-65
2023/06/30 00:51:44;;;;;;;;;;;;;;;;;;5091363;28;19924;-65
2023/06/30 00:54:10;;;;;;;;;;;;;;;;;;5093891;28;19985;-65
2023/06/30 00:56:36;;;;;;;;;;;;;;;;;;5094321;28;19946;-65
2023/06/30 00:59:02;;;;;;;;;;;;;;;;;;5094336;28;19924;-65
2023/06/30 01:01:28;;;;;;;;;;;;;;;;;;5093932;28;19950;-65
2023/06/30 01:03:54;;;;;;;;;;;;;;;;;;5094141;28;19924;-65
2023/06/30 01:06:20;;;;;;;;;;;;;;;;;;5094334;28;19960;-65
2023/06/30 01:08:46;;;;;;;;;;;;;;;;;;5093661;28;19971;-65
2023/06/30 01:11:12;;;;;;;;;;;;;;;;;;5076138;28;19952;-65
2023/06/30 01:13:38;;;;;;;;;;;;;;;;;;5094064;28;19920;-65
2023/06/30 01:16:05;;;;;;;;;;;;;;;;;;5093241;28;19924;-65
2023/06/30 01:18:34;;;;;;;;;;;;;;;;;;5094017;28;20306;-65
2023/06/30 01:21:00;;;;;;;;;;;;;;;;;;5093900;28;19924;-65
2023/06/30 01:23:26;;;;;;;;;;;;;;;;;;5093320;28;20321;-65
2023/06/30 01:25:52;;;;;;;;;;;;;;;;;;5085959;28;19924;-65
2023/06/30 01:28:18;;;;;;;;;;;;;;;;;;5073519;28;19920;-65
2023/06/30 01:30:44;;;;;;;;;;;;;;;;;;5079024;28;19920;-65
2023/06/30 01:33:10;;;;;;;;;;;;;;;;;;5075453;28;20321;-65
2023/06/30 01:35:36;;;;;;;;;;;;;;;;;;5093384;28;20430;-65
2023/06/30 01:38:02;;;;;;;;;;;;;;;;;;5093684;28;20011;-65
2023/06/30 01:40:28;;;;;;;;;;;;;;;;;;5093011;28;19928;-65
2023/06/30 01:42:55;;;;;;;;;;;;;;;;;;5093590;28;19924;-65
2023/06/30 01:45:21;;;;;;;;;;;;;;;;;;5075011;28;20260;-65
2023/06/30 01:47:47;;;;;;;;;;;;;;;;;;5092653;28;19928;-65
2023/06/30 01:50:13;;;;;;;;;;;;;;;;;;5093310;28;19920;-65
2023/06/30 01:52:39;;;;;;;;;;;;;;;;;;5093347;28;20418;-65
2023/06/30 01:55:05;;;;;;;;;;;;;;;;;;5092611;28;19989;-65
2023/06/30 01:57:31;;;;;;;;;;;;;;;;;;5092940;28;19924;-65
2023/06/30 01:59:57;;;;;;;;;;;;;;;;;;5093225;28;19955;-65
2023/06/30 02:02:23;;;;;;;;;;;;;;;;;;5091995;28;19928;-65
2023/06/30 02:04:49;;;;;;;;;;;;;;;;;;5092728;28;19996;-65
2023/06/30 02:07:15;;;;;;;;;;;;;;;;;;5093001;28;19920;-65
2023/06/30 02:09:41;;;;;;;;;;;;;;;;;;5092468;28;19924;-65
2023/06/30 02:12:06;;;;;;;;;;;;;;;;;;5092858;28;19977;-65
2023/06/30 02:14:32;;;;;;;;;;;;;;;;;;5092707;28;19920;-65
2023/06/30 02:16:58;;;;;;;;;;;;;;;;;;5092184;28;19923;-65
2023/06/30 02:19:24;;;;;;;;;;;;;;;;;;5092632;28;19920;-65
2023/06/30 02:21:50;;;;;;;;;;;;;;;;;;5092591;28;20011;-65
2023/06/30 02:24:16;;;;;;;;;;;;;;;;;;5073480;28;19947;-65
2023/06/30 02:26:42;;;;;;;;;;;;;;;;;;5077863;28;20547;-65
2023/06/30 02:29:08;;;;;;;;;;;;;;;;;;5072367;28;19931;-65
2023/06/30 02:31:34;;;;;;;;;;;;;;;;;;5084435;28;19924;-65
2023/06/30 02:34:00;;;;;;;;;;;;;;;;;;5092347;28;19924;-64
2023/06/30 02:36:26;;;;;;;;;;;;;;;;;;5092244;28;19924;-64
2023/06/30 02:38:52;;;;;;;;;;;;;;;;;;5091859;28;19951;-65
2023/06/30 02:41:18;;;;;;;;;;;;;;;;;;5092183;28;19985;-65
2023/06/30 02:43:44;;;;;;;;;;;;;;;;;;5092184;28;19928;-65
2023/06/30 02:46:10;;;;;;;;;;;;;;;;;;5091766;28;19931;-65
2023/06/30 02:48:36;;;;;;;;;;;;;;;;;;5092230;28;19924;-65
2023/06/30 02:51:02;;;;;;;;;;;;;;;;;;5092138;28;19943;-65
2023/06/30 02:53:28;;;;;;;;;;;;;;;;;;5073189;28;20003;-65
2023/06/30 02:55:54;;;;;;;;;;;;;;;;;;5092084;28;19943;-65
2023/06/30 02:58:22;;;;;;;;;;;;;;;;;;5091971;28;19964;-65
2023/06/30 03:00:49;;;;;;;;;;;;;;;;;;5072996;28;19930;-65
2023/06/30 03:03:15;;;;;;;;;;;;;;;;;;5092009;28;19924;-65
2023/06/30 03:05:41;;;;;;;;;;;;;;;;;;5091769;28;19974;-65
2023/06/30 03:08:07;;;;;;;;;;;;;;;;;;5091473;28;19924;-65
2023/06/30 03:10:32;;;;;;;;;;;;;;;;;;5091741;28;19924;-65
2023/06/30 03:12:58;;;;;;;;;;;;;;;;;;5091725;28;19973;-65
2023/06/30 03:15:24;;;;;;;;;;;;;;;;;;5090451;28;19920;-65
2023/06/30 03:17:50;;;;;;;;;;;;;;;;;;5091570;28;19984;-65
2023/06/30 03:20:17;;;;;;;;;;;;;;;;;;5091340;28;20394;-65
2023/06/30 03:22:42;;;;;;;;;;;;;;;;;;5090966;28;19966;-65
2023/06/30 03:25:09;;;;;;;;;;;;;;;;;;5089861;28;19975;-65
2023/06/30 03:27:35;;;;;;;;;;;;;;;;;;5070758;28;20337;-65
2023/06/30 03:30:02;;;;;;;;;;;;;;;;;;5070177;28;19925;-65
2023/06/30 03:32:28;;;;;;;;;;;;;;;;;;5070993;28;19971;-65
2023/06/30 03:34:54;;;;;;;;;;;;;;;;;;5070526;28;19998;-65
2023/06/30 03:37:20;;;;;;;;;;;;;;;;;;5070292;28;19936;-65
2023/06/30 03:39:46;;;;;;;;;;;;;;;;;;5070923;28;19925;-65
2023/06/30 03:42:12;;;;;;;;;;;;;;;;;;5070952;28;19924;-65
2023/06/30 03:44:38;;;;;;;;;;;;;;;;;;5068969;28;19924;-65
2023/06/30 03:47:04;;;;;;;;;;;;;;;;;;5069432;28;19920;-65
2023/06/30 03:49:30;;;;;;;;;;;;;;;;;;5070862;28;20046;-65
2023/06/30 03:51:56;;;;;;;;;;;;;;;;;;5089709;28;19935;-65
2023/06/30 03:54:22;;;;;;;;;;;;;;;;;;5091096;28;19920;-65
2023/06/30 03:56:48;;;;;;;;;;;;;;;;;;5056061;28;19938;-65
2023/06/30 03:59:14;;;;;;;;;;;;;;;;;;5072469;28;20378;-65
2023/06/30 04:01:40;;;;;;;;;;;;;;;;;;5090694;28;19997;-65
2023/06/30 04:04:06;;;;;;;;;;;;;;;;;;5090836;28;20347;-65
2023/06/30 04:06:33;;;;;;;;;;;;;;;;;;5090015;28;20015;-65
2023/06/30 04:08:59;;;;;;;;;;;;;;;;;;5090516;28;19931;-65
2023/06/30 04:11:25;;;;;;;;;;;;;;;;;;5091251;28;19920;-65
2023/06/30 04:13:51;;;;;;;;;;;;;;;;;;5072359;28;19924;-65
2023/06/30 04:16:17;;;;;;;;;;;;;;;;;;5091280;28;19942;-65
2023/06/30 04:18:43;;;;;;;;;;;;;;;;;;5072848;28;19924;-65
2023/06/30 04:21:09;;;;;;;;;;;;;;;;;;5090595;28;20288;-65
2023/06/30 04:23:35;;;;;;;;;;;;;;;;;;5091149;28;19924;-65
2023/06/30 04:26:01;;;;;;;;;;;;;;;;;;5082051;28;19982;-65
2023/06/30 04:28:27;;;;;;;;;;;;;;;;;;5074406;28;19920;-65
2023/06/30 04:30:53;;;;;;;;;;;;;;;;;;5081987;28;19924;-65
2023/06/30 04:33:19;;;;;;;;;;;;;;;;;;5094989;28;20014;-66
2023/06/30 04:35:45;;;;;;;;;;;;;;;;;;5094531;28;19932;-66
2023/06/30 04:38:10;;;;;;;;;;;;;;;;;;5095041;28;19946;-66
2023/06/30 04:40:36;;;;;;;;;;;;;;;;;;5076701;28;20434;-66
2023/06/30 04:43:11;;;;;;;;;;;;;;;;;;5094994;28;20023;-66
2023/06/30 04:45:37;;;;;;;;;;;;;;;;;;5094987;28;19924;-66
2023/06/30 04:48:02;;;;;;;;;;;;;;;;;;5094969;28;19940;-66
2023/06/30 04:50:28;;;;;;;;;;;;;;;;;;5094688;28;19981;-66
2023/06/30 04:52:54;;;;;;;;;;;;;;;;;;5076144;28;19924;-64
2023/06/30 04:55:20;;;;;;;;;;;;;;;;;;5094675;28;19943;-64
2023/06/30 04:57:47;;;;;;;;;;;;;;;;;;5094740;28;19928;-64
2023/06/30 05:00:13;;;;;;;;;;;;;;;;;;5093839;28;20399;-64
2023/06/30 05:02:39;;;;;;;;;;;;;;;;;;5094332;28;19969;-64
2023/06/30 05:05:05;;;;;;;;;;;;;;;;;;5094387;28;19924;-64
2023/06/30 05:07:31;;;;;;;;;;;;;;;;;;5076020;28;19990;-64
2023/06/30 05:09:57;;;;;;;;;;;;;;;;;;5093329;28;19920;-64
2023/06/30 05:12:23;;;;;;;;;;;;;;;;;;5094271;28;19928;-65
2023/06/30 05:14:49;;;;;;;;;;;;;;;;;;5093539;28;20015;-65
2023/06/30 05:17:15;;;;;;;;;;;;;;;;;;5094074;28;19924;-65
2023/06/30 05:19:41;;;;;;;;;;;;;;;;;;5094146;28;19970;-65
2023/06/30 05:22:07;;;;;;;;;;;;;;;;;;5093572;28;19928;-64
2023/06/30 05:24:33;;;;;;;;;;;;;;;;;;5093851;28;19927;-64
2023/06/30 05:26:59;;;;;;;;;;;;;;;;;;5075417;28;20500;-64
2023/06/30 05:29:25;;;;;;;;;;;;;;;;;;5093237;28;19931;-64
2023/06/30 05:31:51;;;;;;;;;;;;;;;;;;5093864;28;19924;-64
2023/06/30 05:34:17;;;;;;;;;;;;;;;;;;5091987;28;19936;-64
2023/06/30 05:36:43;;;;;;;;;;;;;;;;;;5092565;28;19924;-64
2023/06/30 05:39:09;;;;;;;;;;;;;;;;;;5093287;28;19924;-64
2023/06/30 05:41:35;;;;;;;;;;;;;;;;;;5093450;28;19930;-64
2023/06/30 05:44:01;;;;;;;;;;;;;;;;;;5092937;28;19927;-63
2023/06/30 05:46:27;;;;;;;;;;;;;;;;;;5093344;28;19920;-63
2023/06/30 05:48:53;;;;;;;;;;;;;;;;;;5093362;28;19924;-63
2023/06/30 05:51:19;;;;;;;;;;;;;;;;;;5092660;28;20015;-63
2023/06/30 05:53:45;;;;;;;;;;;;;;;;;;5093248;28;19942;-65
2023/06/30 05:56:11;;;;;;;;;;;;;;;;;;5074810;28;19924;-64
2023/06/30 05:58:39;;;;;;;;;;;;;;;;;;5092449;28;19942;-64
2023/06/30 06:01:05;;;;;;;;;;;;;;;;;;5092468;28;19928;-65
2023/06/30 06:03:31;;;;;;;;;;;;;;;;;;5083569;28;20011;-64
2023/06/30 06:05:57;;;;;;;;;;;;;;;;;;5065131;28;19920;-64
2023/06/30 06:08:23;;;;;;;;;;;;;;;;;;5068125;28;19969;-64
2023/06/30 06:10:49;;;;;;;;;;;;;;;;;;5084487;28;19990;-64
2023/06/30 06:13:15;;;;;;;;;;;;;;;;;;5077624;28;19980;-65
2023/06/30 06:15:40;;;;;;;;;;;;;;;;;;5092774;28;19972;-64
2023/06/30 06:18:06;;;;;;;;;;;;;;;;;;5092959;28;19924;-66
2023/06/30 06:20:32;;;;;;;;;;;;;;;;;;5092252;28;19924;-66
2023/06/30 06:22:58;;;;;;;;;;;;;;;;;;5092642;28;19920;-66
2023/06/30 06:25:24;;;;;;;;;;;;;;;;;;5092551;28;19950;-66
2023/06/30 06:27:50;;;;;;;;;;;;;;;;;;5091202;28;19971;-65
2023/06/30 06:30:16;;;;;;;;;;;;;;;;;;5083556;28;20046;-68
2023/06/30 06:32:42;;;;;;;;;;;;;;;;;;5063410;28;19928;-68
2023/06/30 06:35:08;;;;;;;;;;;;;;;;;;5072769;28;20277;-68
2023/06/30 06:37:34;;;;;;;;;;;;;;;;;;5065694;28;20434;-67
2023/06/30 06:40:00;;;;;;;;;;;;;;;;;;5073856;28;19920;-67
2023/06/30 06:42:26;;;;;;;;;;;;;;;;;;5091471;28;19962;-67
2023/06/30 06:44:52;;;;;;;;;;;;;;;;;;5091320;28;19998;-67
2023/06/30 06:47:18;;;;;;;;;;;;;;;;;;5091592;28;20010;-68
2023/06/30 06:49:44;;;;;;;;;;;;;;;;;;5071370;28;20011;-67
2023/06/30 06:52:10;;;;;;;;;;;;;;;;;;5085201;28;19955;-66
2023/06/30 06:54:36;;;;;;;;;;;;;;;;;;5091302;28;20044;-67
2023/06/30 06:57:02;;;;;;;;;;;;;;;;;;5072535;28;19920;-66
2023/06/30 06:59:28;;;;;;;;;;;;;;;;;;5091699;28;19924;-67
2023/06/30 07:01:54;;;;;;;;;;;;;;;;;;5068253;28;19928;-67
2023/06/30 07:04:20;;;;;;;;;;;;;;;;;;5090911;28;19920;-67
2023/06/30 07:06:46;;;;;;;;;;;;;;;;;;5090811;28;20015;-67
2023/06/30 07:09:12;;;;;;;;;;;;;;;;;;5074927;28;19920;-66
2023/06/30 07:11:38;;;;;;;;;;;;;;;;;;5086328;28;19943;-69
2023/06/30 07:14:04;;;;;;;;;;;;;;;;;;5085051;28;19966;-66
2023/06/30 07:16:30;;;;;;;;;;;;;;;;;;5086466;28;19924;-67
2023/06/30 07:18:56;;;;;;;;;;;;;;;;;;5070179;28;19996;-67
2023/06/30 07:21:24;;;;;;;;;;;;;;;;;;5082844;28;19931;-67
2023/06/30 07:23:52;;;;;;;;;;;;;;;;;;5080490;28;19923;-67
2023/06/30 07:26:18;;;;;;;;;;;;;;;;;;5069147;28;19961;-67
2023/06/30 07:28:47;;;;;;;;;;;;;;;;;;5071335;28;19920;-66
2023/06/30 07:31:13;;;;;;;;;;;;;;;;;;5091071;28;20278;-66
2023/06/30 07:33:39;;;;;;;;;;;;;;;;;;5089894;28;19924;-66
2023/06/30 07:36:05;;;;;;;;;;;;;;;;;;5090439;28;19920;-63
2023/06/30 07:38:31;;;;;;;;;;;;;;;;;;5070845;28;19977;-65
2023/06/30 07:40:58;;;;;;;;;;;;;;;;;;5089273;28;19996;-65
2023/06/30 07:43:24;;;;;;;;;;;;;;;;;;5067176;28;20290;-65
2023/06/30 07:45:50;;;;;;;;;;;;;;;;;;5071939;28;19928;-64
2023/06/30 07:48:16;;;;;;;;;;;;;;;;;;5089420;28;20383;-64
2023/06/30 07:50:42;;;;;;;;;;;;;;;;;;5085497;28;20011;-64
2023/06/30 07:53:08;;;;;;;;;;;;;;;;;;5090419;28;19924;-65
2023/06/30 07:55:34;;;;;;;;;;;;;;;;;;5085754;28;19996;-65
2023/06/30 07:58:00;;;;;;;;;;;;;;;;;;5084829;28;19927;-66
2023/06/30 08:00:28;;;;;;;;;;;;;;;;;;5086841;28;19928;-66
2023/06/30 08:02:54;;;;;;;;;;;;;;;;;;5085852;28;19934;-66
2023/06/30 08:05:20;;;;;;;;;;;;;;;;;;5082234;28;20574;-65
2023/06/30 08:07:46;;;;;;;;;;;;;;;;;;5058849;28;19931;-64
2023/06/30 08:10:12;;;;;;;;;;;;;;;;;;5083870;28;19920;-64
2023/06/30 08:12:38;;;;;;;;;;;;;;;;;;5088687;28;20405;-64
2023/06/30 08:15:04;;;;;;;;;;;;;;;;;;5079690;28;19924;-63
2023/06/30 08:17:30;;;;;;;;;;;;;;;;;;5084083;28;19946;-63
2023/06/30 08:19:59;;;;;;;;;;;;;;;;;;5075848;28;19928;-63
2023/06/30 08:22:25;;;;;;;;;;;;;;;;;;5088905;28;19958;-63
2023/06/30 08:24:51;;;;;;;;;;;;;;;;;;5081526;28;20737;-63
2023/06/30 08:27:17;;;;;;;;;;;;;;;;;;5079164;28;19939;-63
2023/06/30 08:29:44;;;;;;;;;;;;;;;;;;5084397;28;19928;-65
2023/06/30 08:32:10;;;;;;;;;;;;;;;;;;5085358;28;19926;-64
2023/06/30 08:34:36;;;;;;;;;;;;;;;;;;5061898;28;19931;-64
2023/06/30 08:37:02;;;;;;;;;;;;;;;;;;5085096;28;19924;-64
2023/06/30 08:39:28;;;;;;;;;;;;;;;;;;5071911;28;19924;-63
2023/06/30 08:41:54;;;;;;;;;;;;;;;;;;5079922;28;19950;-63
2023/06/30 08:44:19;;;;;;;;;;;;;;;;;;5087227;28;19920;-64
2023/06/30 08:46:45;;;;;;;;;;;;;;;;;;5076679;28;19925;-64
2023/06/30 08:49:13;;;;;;;;;;;;;;;;;;5087695;28;19924;-63
2023/06/30 08:51:39;;;;;;;;;;;;;;;;;;5089301;28;19920;-63
2023/06/30 08:54:05;;;;;;;;;;;;;;;;;;5069718;28;19924;-64
2023/06/30 08:56:31;;;;;;;;;;;;;;;;;;5060140;28;19924;-64
2023/06/30 08:58:57;;;;;;;;;;;;;;;;;;5075417;28;19993;-61
2023/06/30 09:01:23;;;;;;;;;;;;;;;;;;5086820;28;19924;-62
2023/06/30 09:03:49;;;;;;;;;;;;;;;;;;5078939;28;19951;-62
2023/06/30 09:06:15;;;;;;;;;;;;;;;;;;5089109;28;19928;-63
2023/06/30 09:08:41;;;;;;;;;;;;;;;;;;5086534;28;19924;-62
2023/06/30 09:11:08;;;;;;;;;;;;;;;;;;5086148;28;19974;-64
2023/06/30 09:13:34;;;;;;;;;;;;;;;;;;5089488;28;20296;-64
2023/06/30 09:16:00;;;;;;;;;;;;;;;;;;5090989;28;19924;-63
2023/06/30 09:18:27;;;;;;;;;;;;;;;;;;5086177;28;19935;-64
2023/06/30 09:20:53;;;;;;;;;;;;;;;;;;5069027;28;19928;-64
2023/06/30 09:23:18;;;;;;;;;;;;;;;;;;5093112;28;19943;-63
2023/06/30 09:25:45;;;;;;;;;;;;;;;;;;5084586;28;19924;-63
2023/06/30 09:28:11;;;;;;;;;;;;;;;;;;5081020;28;20583;-63
2023/06/30 09:30:38;;;;;;;;;;;;;;;;;;5081208;28;20024;-63
2023/06/30 09:33:04;;;;;;;;;;;;;;;;;;5080848;28;19963;-62
2023/06/30 09:35:30;;;;;;;;;;;;;;;;;;5089939;28;19966;-63
2023/06/30 09:37:56;;;;;;;;;;;;;;;;;;5073326;28;20038;-63
2023/06/30 09:40:22;;;;;;;;;;;;;;;;;;5087425;28;19927;-63
2023/06/30 09:42:48;;;;;;;;;;;;;;;;;;5088821;28;19952;-63
2023/06/30 09:45:14;;;;;;;;;;;;;;;;;;5092250;28;19927;-63
2023/06/30 09:47:41;;;;;;;;;;;;;;;;;;5085337;28;20014;-63
2023/06/30 09:50:08;;;;;;;;;;;;;;;;;;5090463;28;20283;-64
2023/06/30 09:52:36;;;;;;;;;;;;;;;;;;5082389;28;19928;-64
2023/06/30 09:55:02;;;;;;;;;;;;;;;;;;5087862;28;20413;-64
2023/06/30 09:57:28;;;;;;;;;;;;;;;;;;5092349;28;19924;-64
2023/06/30 09:59:54;;;;;;;;;;;;;;;;;;5088281;28;19935;-63
2023/06/30 10:02:20;;;;;;;;;;;;;;;;;;5086961;28;19928;-62
2023/06/30 10:04:46;;;;;;;;;;;;;;;;;;5092197;28;19981;-62
2023/06/30 10:07:12;;;;;;;;;;;;;;;;;;5045879;28;19927;-63
2023/06/30 10:09:39;;;;;;;;;;;;;;;;;;5091548;28;19974;-62
2023/06/30 10:12:04;;;;;;;;;;;;;;;;;;5091598;28;19924;-62
2023/06/30 10:14:30;;;;;;;;;;;;;;;;;;5056517;28;20428;-63
2023/06/30 10:16:56;;;;;;;;;;;;;;;;;;5090056;28;19950;-63
2023/06/30 10:19:22;;;;;;;;;;;;;;;;;;5071022;28;19993;-63
2023/06/30 10:21:49;;;;;;;;;;;;;;;;;;5091302;28;19947;-63
2023/06/30 10:24:15;;;;;;;;;;;;;;;;;;5090491;28;19931;-62
2023/06/30 10:26:41;;;;;;;;;;;;;;;;;;5092136;28;19924;-62
2023/06/30 10:29:07;;;;;;;;;;;;;;;;;;5092072;28;19924;-62
2023/06/30 10:31:33;;;;;;;;;;;;;;;;;;5073269;28;19933;-62
2023/06/30 10:33:59;;;;;;;;;;;;;;;;;;5091273;28;19941;-62
2023/06/30 10:36:25;;;;;;;;;;;;;;;;;;5091777;28;19927;-63
2023/06/30 10:38:51;;;;;;;;;;;;;;;;;;5078425;28;19924;-63
2023/06/30 10:41:19;;;;;;;;;;;;;;;;;;5068420;28;19928;-65
2023/06/30 10:43:45;;;;;;;;;;;;;;;;;;5071646;28;20025;-65
2023/06/30 10:46:11;;;;;;;;;;;;;;;;;;5083930;28;19962;-65
2023/06/30 10:48:36;;;;;;;;;;;;;;;;;;5066647;28;19963;-65
2023/06/30 10:51:02;;;;;;;;;;;;;;;;;;5083557;28;20270;-65
2023/06/30 10:53:28;;;;;;;;;;;;;;;;;;5077301;28;19925;-64
2023/06/30 10:55:54;;;;;;;;;;;;;;;;;;5089489;28;20064;-65
2023/06/30 10:58:20;;;;;;;;;;;;;;;;;;5087947;28;19924;-64
2023/06/30 11:00:46;;;;;;;;;;;;;;;;;;5083275;28;19928;-65
2023/06/30 11:03:12;;;;;;;;;;;;;;;;;;5090006;28;19924;-64
2023/06/30 11:05:38;;;;;;;;;;;;;;;;;;5072425;28;19952;-64
2023/06/30 11:08:04;;;;;;;;;;;;;;;;;;5071660;28;19981;-64
2023/06/30 11:10:30;;;;;;;;;;;;;;;;;;5089651;28;19920;-64
2023/06/30 11:12:56;;;;;;;;;;;;;;;;;;5065246;28;20010;-64
2023/06/30 11:15:22;;;;;;;;;;;;;;;;;;5056946;28;19993;-65
2023/06/30 11:17:48;;;;;;;;;;;;;;;;;;5070118;28;19977;-65
2023/06/30 11:20:14;;;;;;;;;;;;;;;;;;5086729;28;19971;-64
2023/06/30 11:22:40;;;;;;;;;;;;;;;;;;5080024;28;20042;-65
2023/06/30 11:25:08;;;;;;;;;;;;;;;;;;5084616;28;19931;-66
2023/06/30 11:27:34;;;;;;;;;;;;;;;;;;5066844;28;19928;-65
2023/06/30 11:30:01;;;;;;;;;;;;;;;;;;5083397;28;20362;-63
2023/06/30 11:32:26;;;;;;;;;;;;;;;;;;5077717;28;19936;-64
2023/06/30 11:34:54;;;;;;;;;;;;;;;;;;5078493;28;21246;-63
2023/06/30 11:37:20;;;;;;;;;;;;;;;;;;5087380;28;20035;-61
2023/06/30 11:39:46;;;;;;;;;;;;;;;;;;5080495;28;20183;-64
2023/06/30 11:42:12;;;;;;;;;;;;;;;;;;5080175;28;19932;-63
2023/06/30 11:44:38;;;;;;;;;;;;;;;;;;5064096;28;19977;-63
2023/06/30 11:47:04;;;;;;;;;;;;;;;;;;5083923;28;19924;-62
2023/06/30 11:49:30;;;;;;;;;;;;;;;;;;5061151;28;19931;-63
2023/06/30 11:51:56;;;;;;;;;;;;;;;;;;5084930;28;19970;-65
2023/06/30 11:54:22;;;;;;;;;;;;;;;;;;5083766;28;20301;-63
2023/06/30 11:56:48;;;;;;;;;;;;;;;;;;5087006;28;19967;-63
2023/06/30 11:59:14;;;;;;;;;;;;;;;;;;5072656;28;19967;-64
2023/06/30 12:01:41;;;;;;;;;;;;;;;;;;5087881;28;19927;-64
2023/06/30 12:04:10;;;;;;;;;;;;;;;;;;5080909;28;19959;-64
2023/06/30 12:06:36;;;;;;;;;;;;;;;;;;5089878;28;19928;-64
2023/06/30 12:09:02;;;;;;;;;;;;;;;;;;5089288;28;19969;-65
2023/06/30 12:11:29;;;;;;;;;;;;;;;;;;5090434;28;19931;-62
2023/06/30 12:13:54;;;;;;;;;;;;;;;;;;5090020;28;19920;-63
2023/06/30 12:16:20;;;;;;;;;;;;;;;;;;5074990;28;19931;-63
2023/06/30 12:18:47;;;;;;;;;;;;;;;;;;5089900;28;19932;-63
2023/06/30 12:21:13;;;;;;;;;;;;;;;;;;5089798;28;19982;-63
2023/06/30 12:23:39;;;;;;;;;;;;;;;;;;5087914;28;20330;-65
2023/06/30 12:26:06;;;;;;;;;;;;;;;;;;5089947;28;19993;-64
2023/06/30 12:28:32;;;;;;;;;;;;;;;;;;5089789;28;19967;-65
2023/06/30 12:30:58;;;;;;;;;;;;;;;;;;5089307;28;19959;-66
2023/06/30 12:33:23;;;;;;;;;;;;;;;;;;5089882;28;19999;-66
2023/06/30 12:35:49;;;;;;;;;;;;;;;;;;5089717;28;19924;-64
2023/06/30 12:38:15;;;;;;;;;;;;;;;;;;5089114;28;19953;-64
2023/06/30 12:40:41;;;;;;;;;;;;;;;;;;5054455;28;19924;-64
2023/06/30 12:43:07;;;;;;;;;;;;;;;;;;5089978;28;19923;-64
2023/06/30 12:45:33;;;;;;;;;;;;;;;;;;5089444;28;19943;-64
2023/06/30 12:47:59;;;;;;;;;;;;;;;;;;5091180;28;19966;-63
2023/06/30 12:50:25;;;;;;;;;;;;;;;;;;5074713;28;19920;-63
2023/06/30 12:52:51;;;;;;;;;;;;;;;;;;5093198;28;19930;-65
2023/06/30 12:55:17;;;;;;;;;;;;;;;;;;5093784;28;20272;-65
2023/06/30 12:57:43;;;;;;;;;;;;;;;;;;5093667;28;19920;-67
2023/06/30 13:00:09;;;;;;;;;;;;;;;;;;5093217;28;19920;-68
2023/06/30 13:02:35;;;;;;;;;;;;;;;;;;5075040;28;20028;-65
2023/06/30 13:05:01;;;;;;;;;;;;;;;;;;5093588;28;20482;-66
2023/06/30 13:07:27;;;;;;;;;;;;;;;;;;5092158;28;19971;-66
2023/06/30 13:09:53;;;;;;;;;;;;;;;;;;5093532;28;19964;-65
2023/06/30 13:12:24;;;;;;;;;;;;;;;;;;5093002;28;20003;-65
2023/06/30 13:14:50;;;;;;;;;;;;;;;;;;5074440;28;19919;-67
2023/06/30 13:17:16;;;;;;;;;;;;;;;;;;5093140;28;19928;-68
2023/06/30 13:19:42;;;;;;;;;;;;;;;;;;5093034;28;19920;-65
2023/06/30 13:22:07;;;;;;;;;;;;;;;;;;5092581;28;19950;-66
2023/06/30 13:24:33;;;;;;;;;;;;;;;;;;5092838;28;19969;-65
2023/06/30 13:26:59;;;;;;;;;;;;;;;;;;5092840;28;19981;-64
2023/06/30 13:29:25;;;;;;;;;;;;;;;;;;5092322;28;19923;-67
2023/06/30 13:31:51;;;;;;;;;;;;;;;;;;5074439;28;19973;-67
2023/06/30 13:34:18;;;;;;;;;;;;;;;;;;5092772;28;19923;-65
2023/06/30 13:36:44;;;;;;;;;;;;;;;;;;5092271;28;19924;-66
2023/06/30 13:39:10;;;;;;;;;;;;;;;;;;5092935;28;19939;-66
2023/06/30 13:41:36;;;;;;;;;;;;;;;;;;5093063;28;20069;-65
2023/06/30 13:44:03;;;;;;;;;;;;;;;;;;5092224;28;19973;-66
2023/06/30 13:46:29;;;;;;;;;;;;;;;;;;5093210;28;20027;-66
2023/06/30 13:48:55;;;;;;;;;;;;;;;;;;5093058;28;20074;-66
2023/06/30 13:51:21;;;;;;;;;;;;;;;;;;5092508;28;19965;-66
2023/06/30 13:53:47;;;;;;;;;;;;;;;;;;5093131;28;19934;-66
2023/06/30 13:56:13;;;;;;;;;;;;;;;;;;5092861;28;19920;-66
2023/06/30 13:58:39;;;;;;;;;;;;;;;;;;5092097;28;19920;-66
2023/06/30 14:01:05;;;;;;;;;;;;;;;;;;5093117;28;19962;-66
2023/06/30 14:03:31;;;;;;;;;;;;;;;;;;5092793;28;19924;-67
2023/06/30 14:05:57;;;;;;;;;;;;;;;;;;5092269;28;20529;-66
2023/06/30 14:08:23;;;;;;;;;;;;;;;;;;5093070;28;20015;-66
2023/06/30 14:10:49;;;;;;;;;;;;;;;;;;5092848;28;19931;-66
2023/06/30 14:13:15;;;;;;;;;;;;;;;;;;5074276;28;20402;-66
2023/06/30 14:15:41;;;;;;;;;;;;;;;;;;5092851;28;19924;-66
2023/06/30 14:18:07;;;;;;;;;;;;;;;;;;5092967;28;19924;-66
2023/06/30 14:20:33;;;;;;;;;;;;;;;;;;5092326;28;20006;-66
2023/06/30 14:22:59;;;;;;;;;;;;;;;;;;5074593;28;19927;-66
2023/06/30 14:25:25;;;;;;;;;;;;;;;;;;5088718;28;19924;-66
2023/06/30 14:27:52;;;;;;;;;;;;;;;;;;5071571;28;19929;-66
2023/06/30 14:30:18;;;;;;;;;;;;;;;;;;5074347;28;20038;-66
2023/06/30 14:32:44;;;;;;;;;;;;;;;;;;5092507;28;20392;-66
2023/06/30 14:35:10;;;;;;;;;;;;;;;;;;5091854;28;19920;-66
2023/06/30 14:37:36;;;;;;;;;;;;;;;;;;5091991;28;19946;-66
2023/06/30 14:40:02;;;;;;;;;;;;;;;;;;5092407;28;19924;-66
2023/06/30 14:42:28;;;;;;;;;;;;;;;;;;5092338;28;20011;-66
2023/06/30 14:44:54;;;;;;;;;;;;;;;;;;5073498;28;20015;-66
2023/06/30 14:47:21;;;;;;;;;;;;;;;;;;5092092;28;19927;-66
2023/06/30 14:49:47;;;;;;;;;;;;;;;;;;5092025;28;20010;-66
2023/06/30 14:52:13;;;;;;;;;;;;;;;;;;5091343;28;19980;-66
2023/06/30 14:54:39;;;;;;;;;;;;;;;;;;5092404;28;19960;-66
2023/06/30 14:57:05;;;;;;;;;;;;;;;;;;5092109;28;19949;-66
2023/06/30 14:59:31;;;;;;;;;;;;;;;;;;5073558;28;19924;-66
2023/06/30 15:01:57;;;;;;;;;;;;;;;;;;5091990;28;19994;-66
2023/06/30 15:04:23;;;;;;;;;;;;;;;;;;5091822;28;19930;-66
2023/06/30 15:06:49;;;;;;;;;;;;;;;;;;5091416;28;20006;-66
2023/06/30 15:09:15;;;;;;;;;;;;;;;;;;5091893;28;19965;-66
2023/06/30 15:11:41;;;;;;;;;;;;;;;;;;5091243;28;19973;-66
2023/06/30 15:14:06;;;;;;;;;;;;;;;;;;5091345;28;19946;-66
2023/06/30 15:16:32;;;;;;;;;;;;;;;;;;5091761;28;19931;-66
2023/06/30 15:18:58;;;;;;;;;;;;;;;;;;5091666;28;19936;-66
2023/06/30 15:21:24;;;;;;;;;;;;;;;;;;5090805;28;19934;-66
2023/06/30 15:23:50;;;;;;;;;;;;;;;;;;5091361;28;19924;-66
2023/06/30 15:26:16;;;;;;;;;;;;;;;;;;5080200;28;19929;-66
2023/06/30 15:28:42;;;;;;;;;;;;;;;;;;5052808;28;19921;-66
2023/06/30 15:31:08;;;;;;;;;;;;;;;;;;5080255;28;19919;-66
2023/06/30 15:33:34;;;;;;;;;;;;;;;;;;5091302;28;20438;-66
2023/06/30 15:36:00;;;;;;;;;;;;;;;;;;5072389;28;20003;-66
2023/06/30 15:38:26;;;;;;;;;;;;;;;;;;5091148;28;19981;-66
2023/06/30 15:40:52;;;;;;;;;;;;;;;;;;5091299;28;19931;-66
2023/06/30 15:43:18;;;;;;;;;;;;;;;;;;5090882;28;19942;-66
2023/06/30 15:45:46;;;;;;;;;;;;;;;;;;5091116;28;19973;-66
2023/06/30 15:48:13;;;;;;;;;;;;;;;;;;5091155;28;19926;-66
2023/06/30 15:50:41;;;;;;;;;;;;;;;;;;5090636;28;19920;-66
2023/06/30 15:53:07;;;;;;;;;;;;;;;;;;5091253;28;19946;-66
2023/06/30 15:55:35;;;;;;;;;;;;;;;;;;5090665;28;20446;-66
2023/06/30 15:58:01;;;;;;;;;;;;;;;;;;5090435;28;19920;-66
2023/06/30 16:00:27;;;;;;;;;;;;;;;;;;5091200;28;19939;-66
2023/06/30 16:02:53;;;;;;;;;;;;;;;;;;5090959;28;19924;-66
2023/06/30 16:05:19;;;;;;;;;;;;;;;;;;5090416;28;20286;-66
2023/06/30 16:07:45;;;;;;;;;;;;;;;;;;5072661;28;19988;-66
2023/06/30 16:10:11;;;;;;;;;;;;;;;;;;5090835;28;19931;-66
2023/06/30 16:12:37;;;;;;;;;;;;;;;;;;5090418;28;20038;-66
2023/06/30 16:15:04;;;;;;;;;;;;;;;;;;5090707;28;19968;-66
2023/06/30 16:17:30;;;;;;;;;;;;;;;;;;5090458;28;19943;-66
2023/06/30 16:19:56;;;;;;;;;;;;;;;;;;5090408;28;20370;-66
2023/06/30 16:22:21;;;;;;;;;;;;;;;;;;5072238;28;19971;-66
2023/06/30 16:24:47;;;;;;;;;;;;;;;;;;5090806;28;19928;-66
2023/06/30 16:27:13;;;;;;;;;;;;;;;;;;5071215;28;19947;-66
2023/06/30 16:29:40;;;;;;;;;;;;;;;;;;5070534;28;19924;-66
2023/06/30 16:32:06;;;;;;;;;;;;;;;;;;5087216;28;19924;-66
2023/06/30 16:34:32;;;;;;;;;;;;;;;;;;5090036;28;19931;-66
2023/06/30 16:36:58;;;;;;;;;;;;;;;;;;5090198;28;19920;-66